KCDH/CDH METAR and TAF weather

Enter ICAO airport designator
Station Type Date Time Source
KCDH METAR 2020/10/22 03:35 UTC NOAA

KCDH 220335Z AUTO 00000KT 8SM BKN037 20/20 A3006 RMK AO2


Station Type Date Time Source
KCDH Decoded METAR 2020/10/22 03:35 UTC NOAA

Camden / Harrell Field, AR, United States (KCDH) 33-37N 092-46W
Oct 21, 2020 - 11:35 PM EDT / 2020.10.22 0335 UTC
Wind: Calm:0
Visibility: 8 mile(s):0
Sky conditions: mostly cloudy
Temperature: 68 F (20 C)
Dew Point: 68 F (20 C)
Relative Humidity: 100%
Pressure (altimeter): 30.06 in. Hg (1017 hPa)
ob: KCDH 220335Z AUTO 00000KT 8SM BKN037 20/20 A3006 RMK AO2
cycle: 3

Station Type Date Time Source
KCDH TAF UTC NOAA

Error!

Example: see airport list